createdAt,value
2023-05-16T00:00:42.636Z,99154.69
2023-05-16T00:04:54.952Z,99160.47
2023-05-16T00:09:07.313Z,99157.56
2023-05-16T00:13:25.324Z,99165.09
2023-05-16T00:17:37.559Z,99158.56
2023-05-16T00:21:49.897Z,99165.72
2023-05-16T00:26:02.263Z,99183.78
2023-05-16T00:30:14.805Z,99179.56
2023-05-16T00:34:27.335Z,99169.41
2023-05-16T00:38:39.693Z,99171.91
2023-05-16T00:42:52.067Z,99176.44
2023-05-16T00:47:05.266Z,99194.13
2023-05-16T00:51:18.759Z,99169.38
2023-05-16T00:55:31.341Z,99144.78
2023-05-16T00:59:46.531Z,99141.09
2023-05-16T01:04:00.994Z,99138.31
2023-05-16T01:08:13.488Z,99170.31
2023-05-16T01:12:57.089Z,99190.34
2023-05-16T01:17:13.089Z,99209.22
2023-05-16T01:21:45.466Z,99214.59
2023-05-16T01:26:19.698Z,99218.03
2023-05-16T01:30:39.512Z,99202.50
2023-05-16T01:34:54.624Z,99192.22
2023-05-16T01:39:22.952Z,99203.09
2023-05-16T01:43:44.179Z,99166.78
2023-05-16T01:48:06.007Z,99176.03
2023-05-16T01:52:54.541Z,99158.47
2023-05-16T01:57:09.344Z,99172.75
2023-05-16T02:01:21.818Z,99182.25
2023-05-16T02:05:34.570Z,99182.63
2023-05-16T02:09:47.904Z,99178.69
2023-05-16T02:14:00.482Z,99167.44
2023-05-16T02:18:23.823Z,99161.41
2023-05-16T02:22:37.332Z,99175.13
2023-05-16T02:26:49.726Z,99168.19
2023-05-16T02:31:02.456Z,99163.50
2023-05-16T02:35:15.702Z,99181.00
2023-05-16T02:39:30.381Z,99184.25
2023-05-16T02:43:46.807Z,99182.41
2023-05-16T02:47:59.422Z,99194.31
2023-05-16T02:52:12.295Z,99177.66
2023-05-16T02:56:24.621Z,99167.63
2023-05-16T03:00:36.951Z,99180.94
2023-05-16T03:04:49.324Z,99174.53
2023-05-16T03:09:01.650Z,99205.94
2023-05-16T03:13:14.079Z,99214.91
2023-05-16T03:17:26.819Z,99231.72
2023-05-16T03:21:39.214Z,99276.84
2023-05-16T03:25:51.882Z,99290.91
2023-05-16T03:30:07.801Z,99251.47
2023-05-16T03:34:20.220Z,99278.25
2023-05-16T03:38:32.864Z,99285.97
2023-05-16T03:42:45.179Z,99282.25
2023-05-16T03:46:57.533Z,99273.38
2023-05-16T03:51:10.071Z,99277.97
2023-05-16T03:55:22.670Z,99266.31
2023-05-16T03:59:35.386Z,99295.25
2023-05-16T04:03:47.877Z,99292.88
2023-05-16T04:08:00.267Z,99284.53
2023-05-16T04:12:12.673Z,99237.31
2023-05-16T04:16:25.246Z,99245.53
2023-05-16T04:20:38.944Z,99285.75
2023-05-16T04:24:51.499Z,99310.66
2023-05-16T04:29:04.677Z,99318.97
2023-05-16T04:33:17.346Z,99328.66
2023-05-16T04:37:29.839Z,99410.38
2023-05-16T04:41:42.762Z,99452.34
2023-05-16T04:45:55.276Z,99458.88
2023-05-16T04:50:09.393Z,99471.81
2023-05-16T04:54:21.844Z,99462.34
2023-05-16T04:58:34.330Z,99430.97
2023-05-16T05:02:47.004Z,99420.06
2023-05-16T05:07:00.159Z,99370.50
2023-05-16T05:11:12.520Z,99352.66
2023-05-16T05:15:25.201Z,99329.44
2023-05-16T05:19:37.811Z,99310.88
2023-05-16T05:23:50.360Z,99324.88
2023-05-16T05:28:02.907Z,99345.28
2023-05-16T05:32:15.415Z,99373.91
2023-05-16T05:36:28.013Z,99366.03
2023-05-16T05:40:40.325Z,99252.50
2023-05-16T05:44:52.734Z,99279.69
2023-05-16T05:49:05.437Z,99295.53
2023-05-16T05:53:17.930Z,99260.25
2023-05-16T05:57:30.459Z,99245.56
2023-05-16T06:01:44.292Z,99254.06
2023-05-16T06:05:56.909Z,99262.41
2023-05-16T06:10:09.659Z,99262.22
2023-05-16T06:14:22.120Z,99281.78
2023-05-16T06:18:34.637Z,99338.88
2023-05-16T06:22:47.058Z,99340.00
2023-05-16T06:26:59.522Z,99345.94
2023-05-16T06:31:12.140Z,99356.00
2023-05-16T06:35:24.715Z,99383.44
2023-05-16T06:39:37.674Z,99360.16
2023-05-16T06:43:50.164Z,99319.81
2023-05-16T06:48:02.628Z,99314.88
2023-05-16T06:52:15.075Z,99333.94
2023-05-16T06:56:29.058Z,99370.47
2023-05-16T07:00:42.096Z,99359.72
2023-05-16T07:04:54.636Z,99351.50
2023-05-16T07:09:07.647Z,99349.16
2023-05-16T07:13:20.218Z,99354.13
2023-05-16T07:17:32.602Z,99320.75
2023-05-16T07:21:46.102Z,99287.66
2023-05-16T07:25:59.289Z,99270.13
2023-05-16T07:30:13.562Z,99233.75
2023-05-16T07:34:26.849Z,99212.44
2023-05-16T07:38:39.633Z,99220.38
2023-05-16T07:42:52.527Z,99269.19
2023-05-16T07:47:05.421Z,99285.84
2023-05-16T07:51:17.956Z,99307.22
2023-05-16T07:55:30.814Z,99287.38
2023-05-16T07:59:44.030Z,99273.94
2023-05-16T08:03:56.859Z,99291.03
2023-05-16T08:08:09.298Z,99294.47
2023-05-16T08:12:22.052Z,99299.41
2023-05-16T08:16:34.644Z,99286.25
2023-05-16T08:20:47.243Z,99252.66
2023-05-16T08:25:00.944Z,99233.59
2023-05-16T08:29:13.499Z,99242.41
2023-05-16T08:33:26.053Z,99244.31
2023-05-16T08:37:39.383Z,99245.06
2023-05-16T08:41:51.881Z,99264.19
2023-05-16T08:46:04.384Z,99250.53
2023-05-16T08:50:17.084Z,99242.78
2023-05-16T08:54:30.398Z,99247.44
2023-05-16T08:58:43.498Z,99239.88
2023-05-16T09:02:56.474Z,99223.78
2023-05-16T09:07:09.059Z,99227.38
2023-05-16T09:11:22.087Z,99238.19
2023-05-16T09:15:34.940Z,99233.53
2023-05-16T09:19:53.151Z,99245.78
2023-05-16T09:24:06.940Z,99258.34
2023-05-16T09:28:19.502Z,99265.16
2023-05-16T09:32:32.090Z,99265.53
2023-05-16T09:36:44.610Z,99262.66
2023-05-16T09:40:57.177Z,99289.25
2023-05-16T09:45:14.435Z,99294.09
2023-05-16T09:49:27.184Z,99321.63
2023-05-16T09:53:40.917Z,99322.41
2023-05-16T09:57:53.497Z,99317.72
2023-05-16T10:02:08.164Z,99317.09
2023-05-16T10:06:21.061Z,99296.88
2023-05-16T10:10:37.017Z,99314.47
2023-05-16T10:14:50.679Z,99303.31
2023-05-16T10:19:04.515Z,99306.63
2023-05-16T10:23:20.116Z,99325.63
2023-05-16T10:27:32.941Z,99355.19
2023-05-16T10:31:47.370Z,99358.44
2023-05-16T10:35:59.946Z,99366.06
2023-05-16T10:40:13.450Z,99363.16
2023-05-16T10:44:26.455Z,99368.03
2023-05-16T10:48:40.702Z,99377.66
2023-05-16T10:52:53.683Z,99352.91
2023-05-16T10:57:08.898Z,99372.38
2023-05-16T11:01:25.848Z,99376.56
2023-05-16T11:05:38.641Z,99405.72
2023-05-16T11:10:05.748Z,99414.06
2023-05-16T11:14:29.175Z,99407.75
2023-05-16T11:18:51.702Z,99416.56
2023-05-16T11:23:18.860Z,99412.41
2023-05-16T11:27:45.793Z,99417.34
2023-05-16T11:32:03.312Z,99412.44
2023-05-16T11:36:16.562Z,99409.53
2023-05-16T11:40:29.219Z,99397.63
2023-05-16T11:44:41.937Z,99396.56
2023-05-16T11:48:54.477Z,99394.66
2023-05-16T11:53:09.603Z,99387.06
2023-05-16T11:57:22.311Z,99362.88
2023-05-16T12:01:39.570Z,99403.66
2023-05-16T12:05:57.149Z,99376.88
2023-05-16T12:10:11.380Z,99387.03
2023-05-16T12:14:24.571Z,99396.81
2023-05-16T12:18:41.912Z,99391.72
2023-05-16T12:23:00.037Z,99399.59
2023-05-16T12:27:13.100Z,99393.81
2023-05-16T12:31:31.763Z,99393.78
2023-05-16T12:35:46.986Z,99413.34
2023-05-16T12:40:04.487Z,99420.06
2023-05-16T12:44:19.926Z,99415.75
2023-05-16T12:48:35.558Z,99422.63
2023-05-16T12:52:52.915Z,99428.19
2023-05-16T12:57:10.531Z,99427.25
2023-05-16T13:01:23.094Z,99423.25
2023-05-16T13:05:36.651Z,99416.75
2023-05-16T13:09:49.452Z,99421.75
2023-05-16T13:14:01.835Z,99422.69
2023-05-16T13:18:15.322Z,99427.09
2023-05-16T13:22:27.895Z,99425.16
2023-05-16T13:26:40.428Z,99427.53
2023-05-16T13:30:53.102Z,99428.34
2023-05-16T13:35:06.429Z,99421.88
2023-05-16T13:39:18.875Z,99414.94
2023-05-16T13:43:31.413Z,99415.78
2023-05-16T13:47:45.164Z,99413.00
2023-05-16T13:51:59.056Z,99406.16
2023-05-16T13:56:11.761Z,99418.06
2023-05-16T14:04:39.821Z,99406.03
2023-05-16T14:08:52.336Z,99407.38
2023-05-16T14:13:04.820Z,99409.13
2023-05-16T14:17:17.464Z,99408.53
2023-05-16T14:21:29.902Z,99421.88
2023-05-16T14:25:42.540Z,99421.22
2023-05-16T14:29:55.023Z,99420.38
2023-05-16T14:34:07.482Z,99430.78
2023-05-16T14:38:21.304Z,99426.78
2023-05-16T14:42:33.780Z,99431.03
2023-05-16T14:46:46.988Z,99426.53
2023-05-16T14:50:59.758Z,99430.88
2023-05-16T14:55:12.297Z,99430.84
2023-05-16T14:59:24.899Z,99442.41
2023-05-16T15:03:53.626Z,99447.75
2023-05-16T15:08:08.192Z,99435.13
2023-05-16T15:12:20.728Z,99441.84
2023-05-16T15:16:33.156Z,99438.19
2023-05-16T15:20:45.693Z,99438.56
2023-05-16T15:24:58.210Z,99436.19
2023-05-16T15:29:11.293Z,99419.81
2023-05-16T15:33:23.870Z,99444.31
2023-05-16T15:37:36.471Z,99438.38
2023-05-16T15:42:08.533Z,99441.50
2023-05-16T15:46:21.644Z,99445.81
2023-05-16T15:50:34.280Z,99449.94
2023-05-16T15:54:46.693Z,99453.81
2023-05-16T15:58:59.235Z,99455.78
2023-05-16T16:03:12.009Z,99458.78
2023-05-16T16:07:25.126Z,99454.00
2023-05-16T16:11:37.727Z,99452.31
2023-05-16T16:15:50.747Z,99452.78
2023-05-16T16:20:03.389Z,99462.34
2023-05-16T16:24:16.265Z,99461.72
2023-05-16T16:28:29.010Z,99472.63
2023-05-16T16:32:41.667Z,99483.53
2023-05-16T16:36:54.175Z,99485.97
2023-05-16T16:41:06.773Z,99493.94
2023-05-16T16:45:21.322Z,99505.72
2023-05-16T16:49:34.942Z,99509.72
2023-05-16T16:53:47.716Z,99511.16
2023-05-16T16:58:01.708Z,99512.06
2023-05-16T17:02:14.493Z,99513.28
2023-05-16T17:06:26.970Z,99506.44
2023-05-16T17:10:39.741Z,99512.75
2023-05-16T17:14:52.268Z,99514.69
2023-05-16T17:19:05.889Z,99525.84
2023-05-16T17:23:20.363Z,99536.88
2023-05-16T17:27:33.025Z,99525.84
2023-05-16T17:31:45.650Z,99530.97
2023-05-16T17:35:58.090Z,99536.47
2023-05-16T17:40:16.667Z,99543.19
2023-05-16T17:44:29.168Z,99547.59
2023-05-16T17:48:42.523Z,99546.75
2023-05-16T17:52:55.040Z,99556.00
2023-05-16T17:57:07.545Z,99558.69
2023-05-16T18:01:19.970Z,99564.75
2023-05-16T18:05:33.146Z,99576.94
2023-05-16T18:09:45.666Z,99571.00
2023-05-16T18:13:58.256Z,99568.72
2023-05-16T18:18:10.768Z,99573.94
2023-05-16T18:22:23.327Z,99571.34
2023-05-16T18:26:37.166Z,99566.13
2023-05-16T18:30:49.879Z,99575.66
2023-05-16T18:35:02.475Z,99573.91
2023-05-16T18:39:15.502Z,99586.56
2023-05-16T18:43:28.054Z,99585.03
2023-05-16T18:47:40.626Z,99587.47
2023-05-16T18:51:53.077Z,99597.63
2023-05-16T18:56:05.545Z,99606.28
2023-05-16T19:00:18.292Z,99606.56
2023-05-16T19:04:31.024Z,99596.16
2023-05-16T19:08:48.162Z,99601.03
2023-05-16T19:13:07.258Z,99602.09
2023-05-16T19:17:19.780Z,99602.41
2023-05-16T19:21:32.261Z,99610.75
2023-05-16T19:25:49.283Z,99617.69
2023-05-16T19:30:01.826Z,99626.19
2023-05-16T19:34:14.599Z,99629.25
2023-05-16T19:38:27.350Z,99638.91
2023-05-16T19:42:39.750Z,99637.94
2023-05-16T19:46:52.211Z,99647.94
2023-05-16T19:51:05.982Z,99653.88
2023-05-16T19:55:18.508Z,99653.69
2023-05-16T19:59:32.766Z,99654.97
2023-05-16T20:03:45.327Z,99673.31
2023-05-16T20:07:57.938Z,99670.41
2023-05-16T20:12:10.601Z,99665.97
2023-05-16T20:16:23.128Z,99660.84
2023-05-16T20:20:35.573Z,99666.31
2023-05-16T20:24:48.057Z,99665.13
2023-05-16T20:29:00.513Z,99678.72
2023-05-16T20:33:13.084Z,99681.59
2023-05-16T20:37:28.637Z,99673.22
2023-05-16T20:41:43.150Z,99673.25
2023-05-16T20:45:56.139Z,99678.56
2023-05-16T20:50:09.108Z,99679.78
2023-05-16T20:54:21.563Z,99681.13
2023-05-16T20:58:35.151Z,99680.78
2023-05-16T21:02:47.584Z,99677.66
2023-05-16T21:07:00.083Z,99672.38
2023-05-16T21:11:12.446Z,99695.00
2023-05-16T21:15:24.932Z,99689.94
2023-05-16T21:19:38.932Z,99685.41
2023-05-16T21:23:51.333Z,99701.06
2023-05-16T21:28:04.090Z,99702.63
2023-05-16T21:32:16.567Z,99701.94
2023-05-16T21:36:29.016Z,99693.34
2023-05-16T21:40:41.646Z,99699.69
2023-05-16T21:44:54.022Z,99702.16
2023-05-16T21:49:06.488Z,99711.97
2023-05-16T21:53:19.474Z,99710.31
2023-05-16T21:57:31.962Z,99702.59
2023-05-16T22:01:44.390Z,99711.38
2023-05-16T22:05:58.506Z,99704.91
2023-05-16T22:10:12.088Z,99696.41
2023-05-16T22:14:24.726Z,99689.34
2023-05-16T22:18:37.457Z,99691.06
2023-05-16T22:22:51.166Z,99696.59
2023-05-16T22:27:03.472Z,99701.28
2023-05-16T22:31:16.051Z,99706.16
2023-05-16T22:35:32.232Z,99703.03
2023-05-16T22:39:44.641Z,99696.16
2023-05-16T22:43:57.038Z,99692.69
2023-05-16T22:48:09.687Z,99697.34
2023-05-16T22:52:22.471Z,99686.94
2023-05-16T22:56:34.839Z,99691.88
2023-05-16T23:00:47.465Z,99693.38
2023-05-16T23:05:00.202Z,99697.13
2023-05-16T23:09:12.648Z,99691.94
2023-05-16T23:13:25.074Z,99702.59
2023-05-16T23:17:41.130Z,99711.59
2023-05-16T23:21:53.579Z,99702.09
2023-05-16T23:26:06.232Z,99693.81
2023-05-16T23:30:18.654Z,99688.47
2023-05-16T23:34:31.184Z,99692.56
2023-05-16T23:38:43.657Z,99701.25
2023-05-16T23:42:56.377Z,99704.25
2023-05-16T23:47:10.026Z,99711.03
2023-05-16T23:51:22.397Z,99702.91
2023-05-16T23:55:36.091Z,99693.47
2023-05-16T23:59:48.502Z,99687.28
